sensor_id;sensor_type;location;lat;lon;timestamp;temperature;humidity
35085;SHT85;21267;51.032;6.998;2023-07-13T00:11:57;18.61;62.67
35085;SHT85;21267;51.032;6.998;2023-07-13T00:14:26;18.65;62.50
35085;SHT85;21267;51.032;6.998;2023-07-13T00:16:54;18.71;62.30
35085;SHT85;21267;51.032;6.998;2023-07-13T00:19:21;18.67;62.48
35085;SHT85;21267;51.032;6.998;2023-07-13T00:21:48;18.77;62.19
35085;SHT85;21267;51.032;6.998;2023-07-13T00:24:18;18.72;62.35
35085;SHT85;21267;51.032;6.998;2023-07-13T00:26:50;18.78;62.36
35085;SHT85;21267;51.032;6.998;2023-07-13T00:29:18;18.81;62.38
35085;SHT85;21267;51.032;6.998;2023-07-13T00:31:45;18.80;62.48
35085;SHT85;21267;51.032;6.998;2023-07-13T00:34:15;18.81;62.46
35085;SHT85;21267;51.032;6.998;2023-07-13T00:36:42;18.80;62.63
35085;SHT85;21267;51.032;6.998;2023-07-13T00:39:10;18.78;62.85
35085;SHT85;21267;51.032;6.998;2023-07-13T00:41:49;18.72;62.96
35085;SHT85;21267;51.032;6.998;2023-07-13T00:44:18;18.63;63.35
35085;SHT85;21267;51.032;6.998;2023-07-13T00:46:48;18.57;63.55
35085;SHT85;21267;51.032;6.998;2023-07-13T00:49:23;18.63;63.55
35085;SHT85;21267;51.032;6.998;2023-07-13T00:52:04;18.61;63.55
35085;SHT85;21267;51.032;6.998;2023-07-13T00:54:49;18.58;63.70
35085;SHT85;21267;51.032;6.998;2023-07-13T00:57:46;18.54;63.67
35085;SHT85;21267;51.032;6.998;2023-07-13T01:00:16;18.51;63.77
35085;SHT85;21267;51.032;6.998;2023-07-13T01:02:45;18.43;63.88
35085;SHT85;21267;51.032;6.998;2023-07-13T01:05:18;18.38;64.01
35085;SHT85;21267;51.032;6.998;2023-07-13T01:07:46;18.37;64.09
35085;SHT85;21267;51.032;6.998;2023-07-13T01:10:15;18.31;64.34
35085;SHT85;21267;51.032;6.998;2023-07-13T01:12:51;18.24;64.61
35085;SHT85;21267;51.032;6.998;2023-07-13T01:15:42;18.17;64.63
35085;SHT85;21267;51.032;6.998;2023-07-13T01:18:16;18.17;64.88
35085;SHT85;21267;51.032;6.998;2023-07-13T01:20:54;18.12;64.99
35085;SHT85;21267;51.032;6.998;2023-07-13T01:23:31;18.08;65.23
35085;SHT85;21267;51.032;6.998;2023-07-13T01:26:11;18.00;65.49
35085;SHT85;21267;51.032;6.998;2023-07-13T01:28:54;18.05;65.47
35085;SHT85;21267;51.032;6.998;2023-07-13T01:31:28;18.00;65.67
35085;SHT85;21267;51.032;6.998;2023-07-13T01:34:36;17.96;65.90
35085;SHT85;21267;51.032;6.998;2023-07-13T01:37:24;18.02;66.07
35085;SHT85;21267;51.032;6.998;2023-07-13T01:39:56;17.95;66.04
35085;SHT85;21267;51.032;6.998;2023-07-13T01:42:25;17.96;66.20
35085;SHT85;21267;51.032;6.998;2023-07-13T01:44:52;17.93;66.48
35085;SHT85;21267;51.032;6.998;2023-07-13T01:47:39;17.85;66.76
35085;SHT85;21267;51.032;6.998;2023-07-13T01:50:07;17.81;66.72
35085;SHT85;21267;51.032;6.998;2023-07-13T01:52:34;17.83;66.95
35085;SHT85;21267;51.032;6.998;2023-07-13T01:55:02;17.79;66.96
35085;SHT85;21267;51.032;6.998;2023-07-13T01:57:39;17.86;66.97
35085;SHT85;21267;51.032;6.998;2023-07-13T02:00:08;17.85;66.97
35085;SHT85;21267;51.032;6.998;2023-07-13T02:03:02;17.83;67.07
35085;SHT85;21267;51.032;6.998;2023-07-13T02:05:29;17.78;67.30
35085;SHT85;21267;51.032;6.998;2023-07-13T02:08:02;17.71;67.50
35085;SHT85;21267;51.032;6.998;2023-07-13T02:10:40;17.61;67.94
35085;SHT85;21267;51.032;6.998;2023-07-13T02:13:07;17.57;68.45
35085;SHT85;21267;51.032;6.998;2023-07-13T02:15:39;17.59;68.58
35085;SHT85;21267;51.032;6.998;2023-07-13T02:18:15;17.50;68.53
35085;SHT85;21267;51.032;6.998;2023-07-13T02:20:50;17.48;68.64
35085;SHT85;21267;51.032;6.998;2023-07-13T02:23:17;17.42;68.67
35085;SHT85;21267;51.032;6.998;2023-07-13T02:25:56;17.41;68.77
35085;SHT85;21267;51.032;6.998;2023-07-13T02:28:23;17.32;69.07
35085;SHT85;21267;51.032;6.998;2023-07-13T02:30:51;17.34;69.05
35085;SHT85;21267;51.032;6.998;2023-07-13T02:33:18;17.37;68.96
35085;SHT85;21267;51.032;6.998;2023-07-13T02:35:48;17.32;68.92
35085;SHT85;21267;51.032;6.998;2023-07-13T02:38:15;17.31;69.14
35085;SHT85;21267;51.032;6.998;2023-07-13T02:40:43;17.26;69.22
35085;SHT85;21267;51.032;6.998;2023-07-13T02:43:24;17.14;69.75
35085;SHT85;21267;51.032;6.998;2023-07-13T02:45:52;17.07;69.83
35085;SHT85;21267;51.032;6.998;2023-07-13T02:48:42;17.03;69.89
35085;SHT85;21267;51.032;6.998;2023-07-13T02:51:16;17.02;69.87
35085;SHT85;21267;51.032;6.998;2023-07-13T02:53:49;16.99;70.09
35085;SHT85;21267;51.032;6.998;2023-07-13T02:56:21;17.23;69.86
35085;SHT85;21267;51.032;6.998;2023-07-13T02:59:28;17.18;69.74
35085;SHT85;21267;51.032;6.998;2023-07-13T03:02:17;17.14;70.05
35085;SHT85;21267;51.032;6.998;2023-07-13T03:04:47;17.34;69.08
35085;SHT85;21267;51.032;6.998;2023-07-13T03:07:17;17.21;69.49
35085;SHT85;21267;51.032;6.998;2023-07-13T03:09:44;17.32;69.14
35085;SHT85;21267;51.032;6.998;2023-07-13T03:12:14;17.38;68.87
35085;SHT85;21267;51.032;6.998;2023-07-13T03:14:47;17.40;69.01
35085;SHT85;21267;51.032;6.998;2023-07-13T03:17:18;17.32;68.77
35085;SHT85;21267;51.032;6.998;2023-07-13T03:19:48;17.38;68.51
35085;SHT85;21267;51.032;6.998;2023-07-13T03:22:18;17.42;68.15
35085;SHT85;21267;51.032;6.998;2023-07-13T03:24:45;17.40;68.45
35085;SHT85;21267;51.032;6.998;2023-07-13T03:27:19;17.38;68.65
35085;SHT85;21267;51.032;6.998;2023-07-13T03:29:48;17.34;68.48
35085;SHT85;21267;51.032;6.998;2023-07-13T03:32:16;17.37;68.79
35085;SHT85;21267;51.032;6.998;2023-07-13T03:34:49;17.38;68.63
35085;SHT85;21267;51.032;6.998;2023-07-13T03:37:16;17.31;68.99
35085;SHT85;21267;51.032;6.998;2023-07-13T03:39:44;17.23;69.18
35085;SHT85;21267;51.032;6.998;2023-07-13T03:42:32;17.21;69.43
35085;SHT85;21267;51.032;6.998;2023-07-13T03:45:27;17.10;69.72
35085;SHT85;21267;51.032;6.998;2023-07-13T03:47:54;17.21;69.38
35085;SHT85;21267;51.032;6.998;2023-07-13T03:50:21;17.10;69.69
35085;SHT85;21267;51.032;6.998;2023-07-13T03:52:49;17.13;69.84
35085;SHT85;21267;51.032;6.998;2023-07-13T03:55:18;17.17;70.02
35085;SHT85;21267;51.032;6.998;2023-07-13T03:58:27;17.15;69.98
35085;SHT85;21267;51.032;6.998;2023-07-13T04:00:58;17.17;70.08
35085;SHT85;21267;51.032;6.998;2023-07-13T04:03:39;17.13;70.21
35085;SHT85;21267;51.032;6.998;2023-07-13T04:06:19;17.02;70.57
35085;SHT85;21267;51.032;6.998;2023-07-13T04:09:07;17.10;70.67
35085;SHT85;21267;51.032;6.998;2023-07-13T04:11:54;17.10;70.80
35085;SHT85;21267;51.032;6.998;2023-07-13T04:14:22;17.11;70.62
35085;SHT85;21267;51.032;6.998;2023-07-13T04:16:49;17.00;70.95
35085;SHT85;21267;51.032;6.998;2023-07-13T04:19:29;17.10;70.81
35085;SHT85;21267;51.032;6.998;2023-07-13T04:22:05;17.00;71.11
35085;SHT85;21267;51.032;6.998;2023-07-13T04:28:00;17.07;70.87
35085;SHT85;21267;51.032;6.998;2023-07-13T04:30:27;17.07;71.10
35085;SHT85;21267;51.032;6.998;2023-07-13T04:32:54;17.06;71.09
35085;SHT85;21267;51.032;6.998;2023-07-13T04:35:41;16.97;71.41
35085;SHT85;21267;51.032;6.998;2023-07-13T04:38:19;17.14;71.09
35085;SHT85;21267;51.032;6.998;2023-07-13T04:40:51;17.17;71.44
35085;SHT85;21267;51.032;6.998;2023-07-13T04:43:31;17.10;71.54
35085;SHT85;21267;51.032;6.998;2023-07-13T04:46:20;16.99;71.63
35085;SHT85;21267;51.032;6.998;2023-07-13T04:48:58;17.17;71.29
35085;SHT85;21267;51.032;6.998;2023-07-13T04:51:40;17.17;71.30
35085;SHT85;21267;51.032;6.998;2023-07-13T04:54:08;17.13;71.47
35085;SHT85;21267;51.032;6.998;2023-07-13T04:56:40;17.06;71.69
35085;SHT85;21267;51.032;6.998;2023-07-13T04:59:09;17.08;71.71
35085;SHT85;21267;51.032;6.998;2023-07-13T05:01:36;16.99;71.92
35085;SHT85;21267;51.032;6.998;2023-07-13T05:04:05;16.96;72.27
35085;SHT85;21267;51.032;6.998;2023-07-13T05:06:47;17.14;71.79
35085;SHT85;21267;51.032;6.998;2023-07-13T05:09:19;17.08;71.85
35085;SHT85;21267;51.032;6.998;2023-07-13T05:11:47;16.96;72.44
35085;SHT85;21267;51.032;6.998;2023-07-13T05:14:14;17.02;72.29
35085;SHT85;21267;51.032;6.998;2023-07-13T05:16:46;17.06;72.07
35085;SHT85;21267;51.032;6.998;2023-07-13T05:19:13;17.00;72.47
35085;SHT85;21267;51.032;6.998;2023-07-13T05:21:46;16.99;72.61
35085;SHT85;21267;51.032;6.998;2023-07-13T05:24:23;16.97;72.63
35085;SHT85;21267;51.032;6.998;2023-07-13T05:26:55;16.96;72.77
35085;SHT85;21267;51.032;6.998;2023-07-13T05:29:24;16.96;72.79
35085;SHT85;21267;51.032;6.998;2023-07-13T05:31:54;17.13;72.54
35085;SHT85;21267;51.032;6.998;2023-07-13T05:34:28;17.21;72.45
35085;SHT85;21267;51.032;6.998;2023-07-13T05:37:10;17.13;72.67
35085;SHT85;21267;51.032;6.998;2023-07-13T05:39:37;17.17;72.82
35085;SHT85;21267;51.032;6.998;2023-07-13T05:42:04;17.21;72.92
35085;SHT85;21267;51.032;6.998;2023-07-13T05:44:34;17.28;72.69
35085;SHT85;21267;51.032;6.998;2023-07-13T05:47:02;17.31;72.59
35085;SHT85;21267;51.032;6.998;2023-07-13T05:49:30;17.42;72.56
35085;SHT85;21267;51.032;6.998;2023-07-13T05:51:57;17.37;72.63
35085;SHT85;21267;51.032;6.998;2023-07-13T05:54:27;17.58;72.21
35085;SHT85;21267;51.032;6.998;2023-07-13T05:56:59;17.75;71.89
35085;SHT85;21267;51.032;6.998;2023-07-13T05:59:27;17.55;72.66
35085;SHT85;21267;51.032;6.998;2023-07-13T06:01:54;17.61;72.65
35085;SHT85;21267;51.032;6.998;2023-07-13T06:04:21;17.48;73.04
35085;SHT85;21267;51.032;6.998;2023-07-13T06:06:48;17.76;72.69
35085;SHT85;21267;51.032;6.998;2023-07-13T06:09:15;17.91;72.29
35085;SHT85;21267;51.032;6.998;2023-07-13T06:11:42;17.63;73.08
35085;SHT85;21267;51.032;6.998;2023-07-13T06:14:11;17.68;73.10
35085;SHT85;21267;51.032;6.998;2023-07-13T06:16:39;17.55;73.39
35085;SHT85;21267;51.032;6.998;2023-07-13T06:19:07;17.62;73.69
35085;SHT85;21267;51.032;6.998;2023-07-13T06:21:34;17.73;73.33
35085;SHT85;21267;51.032;6.998;2023-07-13T06:24:00;17.68;73.50
35085;SHT85;21267;51.032;6.998;2023-07-13T06:26:27;17.66;73.55
35085;SHT85;21267;51.032;6.998;2023-07-13T06:28:54;18.00;72.92
35085;SHT85;21267;51.032;6.998;2023-07-13T06:39:44;17.91;73.36
35085;SHT85;21267;51.032;6.998;2023-07-13T06:57:15;18.71;71.41
35085;SHT85;21267;51.032;6.998;2023-07-13T07:24:41;18.84;71.35
35085;SHT85;21267;51.032;6.998;2023-07-13T07:27:19;19.03;70.94
35085;SHT85;21267;51.032;6.998;2023-07-13T07:29:53;19.05;70.87
35085;SHT85;21267;51.032;6.998;2023-07-13T07:32:42;19.12;70.80
35085;SHT85;21267;51.032;6.998;2023-07-13T07:35:20;19.06;70.95
35085;SHT85;21267;51.032;6.998;2023-07-13T07:38:00;19.20;70.45
35085;SHT85;21267;51.032;6.998;2023-07-13T07:40:31;19.33;70.13
35085;SHT85;21267;51.032;6.998;2023-07-13T07:43:11;19.47;69.45
35085;SHT85;21267;51.032;6.998;2023-07-13T07:45:39;19.40;70.01
35085;SHT85;21267;51.032;6.998;2023-07-13T07:48:20;19.28;70.21
35085;SHT85;21267;51.032;6.998;2023-07-13T07:50:47;19.42;69.90
35085;SHT85;21267;51.032;6.998;2023-07-13T07:53:14;19.59;69.23
35085;SHT85;21267;51.032;6.998;2023-07-13T07:55:41;19.81;69.26
35085;SHT85;21267;51.032;6.998;2023-07-13T07:58:28;19.51;69.09
35085;SHT85;21267;51.032;6.998;2023-07-13T08:01:07;19.63;69.39
35085;SHT85;21267;51.032;6.998;2023-07-13T08:03:37;19.64;69.75
35085;SHT85;21267;51.032;6.998;2023-07-13T08:06:06;19.88;68.81
35085;SHT85;21267;51.032;6.998;2023-07-13T08:08:56;20.04;68.23
35085;SHT85;21267;51.032;6.998;2023-07-13T08:11:23;20.22;68.27
35085;SHT85;21267;51.032;6.998;2023-07-13T08:13:52;20.15;68.63
35085;SHT85;21267;51.032;6.998;2023-07-13T08:16:21;20.04;68.83
35085;SHT85;21267;51.032;6.998;2023-07-13T08:18:49;20.28;68.45
35085;SHT85;21267;51.032;6.998;2023-07-13T08:21:16;20.49;68.11
35085;SHT85;21267;51.032;6.998;2023-07-13T08:23:42;20.70;67.55
35085;SHT85;21267;51.032;6.998;2023-07-13T08:26:09;20.86;67.33
35085;SHT85;21267;51.032;6.998;2023-07-13T08:28:36;21.35;66.16
35085;SHT85;21267;51.032;6.998;2023-07-13T08:31:04;22.10;64.36
35085;SHT85;21267;51.032;6.998;2023-07-13T08:33:31;21.34;65.88
35085;SHT85;21267;51.032;6.998;2023-07-13T08:35:58;20.98;66.46
35085;SHT85;21267;51.032;6.998;2023-07-13T08:38:25;20.88;67.18
35085;SHT85;21267;51.032;6.998;2023-07-13T08:40:53;20.83;67.60
35085;SHT85;21267;51.032;6.998;2023-07-13T08:43:35;20.86;67.03
35085;SHT85;21267;51.032;6.998;2023-07-13T08:46:15;21.28;66.18
35085;SHT85;21267;51.032;6.998;2023-07-13T08:48:56;21.25;66.07
35085;SHT85;21267;51.032;6.998;2023-07-13T08:56:45;20.81;66.39
35085;SHT85;21267;51.032;6.998;2023-07-13T08:59:18;20.83;66.79
35085;SHT85;21267;51.032;6.998;2023-07-13T09:02:14;21.38;65.70
35085;SHT85;21267;51.032;6.998;2023-07-13T09:04:50;21.46;64.42
35085;SHT85;21267;51.032;6.998;2023-07-13T09:07:57;21.59;64.40
35085;SHT85;21267;51.032;6.998;2023-07-13T09:10:22;21.32;65.26
35085;SHT85;21267;51.032;6.998;2023-07-13T09:15:46;22.04;63.41
35085;SHT85;21267;51.032;6.998;2023-07-13T09:18:22;21.72;63.52
35085;SHT85;21267;51.032;6.998;2023-07-13T09:21:14;22.16;62.81
35085;SHT85;21267;51.032;6.998;2023-07-13T09:23:43;21.56;63.55
35085;SHT85;21267;51.032;6.998;2023-07-13T09:26:14;21.96;62.59
35085;SHT85;21267;51.032;6.998;2023-07-13T09:28:45;22.37;62.28
35085;SHT85;21267;51.032;6.998;2023-07-13T09:31:24;22.55;61.36
35085;SHT85;21267;51.032;6.998;2023-07-13T09:33:53;23.05;60.76
35085;SHT85;21267;51.032;6.998;2023-07-13T09:36:29;23.56;59.94
35085;SHT85;21267;51.032;6.998;2023-07-13T09:39:08;22.85;60.43
35085;SHT85;21267;51.032;6.998;2023-07-13T09:44:16;23.19;61.06
35085;SHT85;21267;51.032;6.998;2023-07-13T09:46:45;23.29;60.25
35085;SHT85;21267;51.032;6.998;2023-07-13T09:49:12;22.68;61.64
35085;SHT85;21267;51.032;6.998;2023-07-13T09:51:42;23.09;60.90
35085;SHT85;21267;51.032;6.998;2023-07-13T09:54:21;22.36;62.00
35085;SHT85;21267;51.032;6.998;2023-07-13T09:56:55;22.64;61.59
35085;SHT85;21267;51.032;6.998;2023-07-13T09:59:27;22.39;61.01
35085;SHT85;21267;51.032;6.998;2023-07-13T10:01:58;21.68;62.52
35085;SHT85;21267;51.032;6.998;2023-07-13T10:04:32;22.14;61.63
35085;SHT85;21267;51.032;6.998;2023-07-13T10:07:08;22.24;61.25
35085;SHT85;21267;51.032;6.998;2023-07-13T10:09:59;22.74;60.35
35085;SHT85;21267;51.032;6.998;2023-07-13T10:12:29;22.82;60.24
35085;SHT85;21267;51.032;6.998;2023-07-13T10:15:01;22.47;61.19
35085;SHT85;21267;51.032;6.998;2023-07-13T10:17:51;22.92;60.15
35085;SHT85;21267;51.032;6.998;2023-07-13T10:20:20;23.12;59.95
35085;SHT85;21267;51.032;6.998;2023-07-13T10:23:05;23.26;60.05
35085;SHT85;21267;51.032;6.998;2023-07-13T10:25:39;23.21;58.74
35085;SHT85;21267;51.032;6.998;2023-07-13T10:28:33;22.67;60.17
35085;SHT85;21267;51.032;6.998;2023-07-13T10:31:02;23.08;59.18
35085;SHT85;21267;51.032;6.998;2023-07-13T10:33:31;23.02;59.10
35085;SHT85;21267;51.032;6.998;2023-07-13T10:38:44;23.14;59.59
35085;SHT85;21267;51.032;6.998;2023-07-13T10:41:19;23.87;57.18
35085;SHT85;21267;51.032;6.998;2023-07-13T10:43:51;23.84;56.87
35085;SHT85;21267;51.032;6.998;2023-07-13T10:46:24;24.02;57.00
35085;SHT85;21267;51.032;6.998;2023-07-13T10:48:58;24.79;55.00
35085;SHT85;21267;51.032;6.998;2023-07-13T10:51:27;25.28;54.07
35085;SHT85;21267;51.032;6.998;2023-07-13T10:54:31;24.21;55.85
35085;SHT85;21267;51.032;6.998;2023-07-13T10:57:19;23.33;57.46
35085;SHT85;21267;51.032;6.998;2023-07-13T14:44:37;25.44;48.39
35085;SHT85;21267;51.032;6.998;2023-07-13T14:47:05;24.82;49.81
35085;SHT85;21267;51.032;6.998;2023-07-13T14:49:34;24.79;49.80
35085;SHT85;21267;51.032;6.998;2023-07-13T14:52:18;24.45;50.48
35085;SHT85;21267;51.032;6.998;2023-07-13T14:54:47;24.35;50.94
35085;SHT85;21267;51.032;6.998;2023-07-13T14:57:19;24.20;51.52
35085;SHT85;21267;51.032;6.998;2023-07-13T14:59:47;24.13;51.81
35085;SHT85;21267;51.032;6.998;2023-07-13T15:02:25;25.10;50.21
35085;SHT85;21267;51.032;6.998;2023-07-13T15:04:55;25.06;49.80
35085;SHT85;21267;51.032;6.998;2023-07-13T15:07:22;24.93;49.94
35085;SHT85;21267;51.032;6.998;2023-07-13T15:09:50;25.22;49.63
35085;SHT85;21267;51.032;6.998;2023-07-13T15:12:18;24.71;49.26
35085;SHT85;21267;51.032;6.998;2023-07-13T15:14:45;24.66;49.35
35085;SHT85;21267;51.032;6.998;2023-07-13T15:17:41;24.71;49.15
35085;SHT85;21267;51.032;6.998;2023-07-13T15:20:19;25.41;48.35
35085;SHT85;21267;51.032;6.998;2023-07-13T15:22:48;26.09;47.53
35085;SHT85;21267;51.032;6.998;2023-07-13T15:25:18;25.65;48.48
35085;SHT85;21267;51.032;6.998;2023-07-13T15:27:46;26.06;48.09
35085;SHT85;21267;51.032;6.998;2023-07-13T15:30:22;24.76;49.52
35085;SHT85;21267;51.032;6.998;2023-07-13T15:32:52;24.72;50.13
35085;SHT85;21267;51.032;6.998;2023-07-13T15:35:21;24.61;50.81
35085;SHT85;21267;51.032;6.998;2023-07-13T15:37:48;24.38;51.60
35085;SHT85;21267;51.032;6.998;2023-07-13T15:40:17;23.97;52.28
35085;SHT85;21267;51.032;6.998;2023-07-13T15:42:44;23.87;52.17
35085;SHT85;21267;51.032;6.998;2023-07-13T15:45:17;23.80;52.29
35085;SHT85;21267;51.032;6.998;2023-07-13T15:47:58;23.38;56.35
35085;SHT85;21267;51.032;6.998;2023-07-13T15:50:26;23.26;57.38
35085;SHT85;21267;51.032;6.998;2023-07-13T15:53:00;22.90;58.57
35085;SHT85;21267;51.032;6.998;2023-07-13T15:55:29;22.82;59.26
35085;SHT85;21267;51.032;6.998;2023-07-13T15:57:56;22.84;59.61
35085;SHT85;21267;51.032;6.998;2023-07-13T16:00:37;22.37;60.79
35085;SHT85;21267;51.032;6.998;2023-07-13T16:03:08;22.65;60.32
35085;SHT85;21267;51.032;6.998;2023-07-13T16:05:51;22.64;60.66
35085;SHT85;21267;51.032;6.998;2023-07-13T16:08:27;22.37;61.47
35085;SHT85;21267;51.032;6.998;2023-07-13T16:11:02;22.44;61.23
35085;SHT85;21267;51.032;6.998;2023-07-13T16:13:29;22.34;61.39
35085;SHT85;21267;51.032;6.998;2023-07-13T16:15:56;22.32;61.40
35085;SHT85;21267;51.032;6.998;2023-07-13T16:18:37;22.23;60.93
35085;SHT85;21267;51.032;6.998;2023-07-13T16:21:10;22.20;61.27
35085;SHT85;21267;51.032;6.998;2023-07-13T16:23:52;22.47;61.01
35085;SHT85;21267;51.032;6.998;2023-07-13T16:26:35;22.50;61.01
35085;SHT85;21267;51.032;6.998;2023-07-13T16:32:04;22.61;60.83
35085;SHT85;21267;51.032;6.998;2023-07-13T16:34:37;22.53;60.47
35085;SHT85;21267;51.032;6.998;2023-07-13T16:37:21;22.45;60.77
35085;SHT85;21267;51.032;6.998;2023-07-13T16:39:54;22.47;60.60
35085;SHT85;21267;51.032;6.998;2023-07-13T16:42:31;22.64;60.20
35085;SHT85;21267;51.032;6.998;2023-07-13T16:44:58;22.55;60.24
35085;SHT85;21267;51.032;6.998;2023-07-13T16:47:25;22.43;60.53
35085;SHT85;21267;51.032;6.998;2023-07-13T16:50:14;22.33;60.21
35085;SHT85;21267;51.032;6.998;2023-07-13T16:52:55;22.14;61.21
35085;SHT85;21267;51.032;6.998;2023-07-13T16:55:22;22.23;60.78
35085;SHT85;21267;51.032;6.998;2023-07-13T16:57:57;22.30;60.43
35085;SHT85;21267;51.032;6.998;2023-07-13T17:00:32;22.06;60.58
35085;SHT85;21267;51.032;6.998;2023-07-13T17:03:05;21.95;61.02
35085;SHT85;21267;51.032;6.998;2023-07-13T17:05:42;21.97;60.87
35085;SHT85;21267;51.032;6.998;2023-07-13T17:10:56;22.12;60.69
35085;SHT85;21267;51.032;6.998;2023-07-13T17:13:27;22.10;60.53
35085;SHT85;21267;51.032;6.998;2023-07-13T17:15:57;21.90;60.34
35085;SHT85;21267;51.032;6.998;2023-07-13T17:18:31;21.90;60.19
35085;SHT85;21267;51.032;6.998;2023-07-13T17:21:09;21.62;60.62
35085;SHT85;21267;51.032;6.998;2023-07-13T17:23:39;21.71;60.46
35085;SHT85;21267;51.032;6.998;2023-07-13T17:26:05;21.89;60.24
35085;SHT85;21267;51.032;6.998;2023-07-13T17:28:46;21.86;60.12
35085;SHT85;21267;51.032;6.998;2023-07-13T17:31:17;21.72;61.06
35085;SHT85;21267;51.032;6.998;2023-07-13T17:33:45;22.00;60.70
35085;SHT85;21267;51.032;6.998;2023-07-13T17:36:27;21.86;60.57
35085;SHT85;21267;51.032;6.998;2023-07-13T17:38:55;21.90;60.54
35085;SHT85;21267;51.032;6.998;2023-07-13T17:41:38;21.89;60.61
35085;SHT85;21267;51.032;6.998;2023-07-13T17:44:11;22.06;60.13
35085;SHT85;21267;51.032;6.998;2023-07-13T17:46:51;21.88;59.93
35085;SHT85;21267;51.032;6.998;2023-07-13T17:49:20;22.08;59.92
35085;SHT85;21267;51.032;6.998;2023-07-13T17:51:55;22.09;59.89
35085;SHT85;21267;51.032;6.998;2023-07-13T17:58:39;22.08;59.45
35085;SHT85;21267;51.032;6.998;2023-07-13T18:01:11;21.93;59.16
35085;SHT85;21267;51.032;6.998;2023-07-13T18:03:40;22.02;59.07
35085;SHT85;21267;51.032;6.998;2023-07-13T18:06:23;21.89;59.15
35085;SHT85;21267;51.032;6.998;2023-07-13T18:08:59;22.13;58.50
35085;SHT85;21267;51.032;6.998;2023-07-13T18:11:31;22.26;58.24
35085;SHT85;21267;51.032;6.998;2023-07-13T18:13:58;22.17;58.24
35085;SHT85;21267;51.032;6.998;2023-07-13T18:16:28;22.10;58.39
35085;SHT85;21267;51.032;6.998;2023-07-13T18:18:58;22.13;58.13
35085;SHT85;21267;51.032;6.998;2023-07-13T18:21:25;22.19;58.59
35085;SHT85;21267;51.032;6.998;2023-07-13T18:23:55;22.26;58.40
35085;SHT85;21267;51.032;6.998;2023-07-13T18:26:29;22.04;58.76
35085;SHT85;21267;51.032;6.998;2023-07-13T18:28:56;21.92;58.97
35085;SHT85;21267;51.032;6.998;2023-07-13T18:31:35;21.97;59.10
35085;SHT85;21267;51.032;6.998;2023-07-13T18:34:02;21.90;59.21
35085;SHT85;21267;51.032;6.998;2023-07-13T18:36:43;21.92;58.86
35085;SHT85;21267;51.032;6.998;2023-07-13T18:39:14;21.86;59.10
35085;SHT85;21267;51.032;6.998;2023-07-13T18:41:56;21.88;59.24
35085;SHT85;21267;51.032;6.998;2023-07-13T18:44:24;21.82;59.30
35085;SHT85;21267;51.032;6.998;2023-07-13T18:47:04;21.90;59.28
35085;SHT85;21267;51.032;6.998;2023-07-13T18:49:35;21.92;59.19
35085;SHT85;21267;51.032;6.998;2023-07-13T18:52:18;21.65;59.52
35085;SHT85;21267;51.032;6.998;2023-07-13T18:54:46;21.51;60.11
35085;SHT85;21267;51.032;6.998;2023-07-13T18:57:20;21.54;60.01
35085;SHT85;21267;51.032;6.998;2023-07-13T18:59:47;21.54;60.19
35085;SHT85;21267;51.032;6.998;2023-07-13T19:02:15;21.58;60.28
35085;SHT85;21267;51.032;6.998;2023-07-13T19:04:50;21.56;60.25
35085;SHT85;21267;51.032;6.998;2023-07-13T19:07:17;21.52;60.35
35085;SHT85;21267;51.032;6.998;2023-07-13T19:09:45;21.37;60.61
35085;SHT85;21267;51.032;6.998;2023-07-13T19:12:19;21.23;60.74
35085;SHT85;21267;51.032;6.998;2023-07-13T19:14:49;21.25;60.94
35085;SHT85;21267;51.032;6.998;2023-07-13T19:17:18;21.32;60.97
35085;SHT85;21267;51.032;6.998;2023-07-13T19:19:46;21.25;61.05
35085;SHT85;21267;51.032;6.998;2023-07-13T19:22:20;21.14;61.30
35085;SHT85;21267;51.032;6.998;2023-07-13T19:24:48;21.10;61.47
35085;SHT85;21267;51.032;6.998;2023-07-13T19:27:16;21.08;61.56
35085;SHT85;21267;51.032;6.998;2023-07-13T19:29:45;21.03;61.62
35085;SHT85;21267;51.032;6.998;2023-07-13T19:32:12;21.11;61.50
35085;SHT85;21267;51.032;6.998;2023-07-13T19:34:40;21.18;61.34
35085;SHT85;21267;51.032;6.998;2023-07-13T19:37:22;21.11;61.39
35085;SHT85;21267;51.032;6.998;2023-07-13T19:39:50;21.04;61.65
35085;SHT85;21267;51.032;6.998;2023-07-13T19:42:32;21.08;61.80
35085;SHT85;21267;51.032;6.998;2023-07-13T19:44:59;21.01;61.69
35085;SHT85;21267;51.032;6.998;2023-07-13T19:47:40;21.04;62.01
35085;SHT85;21267;51.032;6.998;2023-07-13T19:50:11;21.01;61.98
35085;SHT85;21267;51.032;6.998;2023-07-13T19:52:54;20.94;61.95
35085;SHT85;21267;51.032;6.998;2023-07-13T19:55:22;20.96;61.97
35085;SHT85;21267;51.032;6.998;2023-07-13T19:57:50;20.90;62.25
35085;SHT85;21267;51.032;6.998;2023-07-13T20:00:26;20.84;62.41
35085;SHT85;21267;51.032;6.998;2023-07-13T20:03:07;20.98;62.16
35085;SHT85;21267;51.032;6.998;2023-07-13T20:05:35;20.94;62.27
35085;SHT85;21267;51.032;6.998;2023-07-13T20:08:13;20.94;62.30
35085;SHT85;21267;51.032;6.998;2023-07-13T20:10:43;20.84;62.63
35085;SHT85;21267;51.032;6.998;2023-07-13T20:13:13;20.94;62.74
35085;SHT85;21267;51.032;6.998;2023-07-13T20:16:00;20.88;62.79
35085;SHT85;21267;51.032;6.998;2023-07-13T20:18:27;20.87;62.73
35085;SHT85;21267;51.032;6.998;2023-07-13T20:21:02;20.96;63.07
35085;SHT85;21267;51.032;6.998;2023-07-13T20:23:29;20.87;63.04
35085;SHT85;21267;51.032;6.998;2023-07-13T20:25:56;20.75;64.07
35085;SHT85;21267;51.032;6.998;2023-07-13T20:28:24;20.65;64.71
35085;SHT85;21267;51.032;6.998;2023-07-13T20:30:51;20.55;64.80
35085;SHT85;21267;51.032;6.998;2023-07-13T20:33:22;20.40;65.35
35085;SHT85;21267;51.032;6.998;2023-07-13T20:35:52;20.35;65.31
35085;SHT85;21267;51.032;6.998;2023-07-13T20:38:21;20.36;65.42
35085;SHT85;21267;51.032;6.998;2023-07-13T20:40:50;20.33;65.80
35085;SHT85;21267;51.032;6.998;2023-07-13T20:43:19;20.32;66.05
35085;SHT85;21267;51.032;6.998;2023-07-13T20:45:50;20.25;66.20
35085;SHT85;21267;51.032;6.998;2023-07-13T20:48:37;20.12;66.80
35085;SHT85;21267;51.032;6.998;2023-07-13T20:51:20;20.17;66.60
35085;SHT85;21267;51.032;6.998;2023-07-13T20:53:50;20.08;66.61
35085;SHT85;21267;51.032;6.998;2023-07-13T20:56:22;20.07;66.81
35085;SHT85;21267;51.032;6.998;2023-07-13T20:58:51;19.82;67.56
35085;SHT85;21267;51.032;6.998;2023-07-13T21:01:31;19.75;67.64
35085;SHT85;21267;51.032;6.998;2023-07-13T21:04:03;19.74;67.59
35085;SHT85;21267;51.032;6.998;2023-07-13T21:06:30;19.92;67.35
35085;SHT85;21267;51.032;6.998;2023-07-13T21:09:00;19.81;67.63
35085;SHT85;21267;51.032;6.998;2023-07-13T21:11:27;19.47;68.65
35085;SHT85;21267;51.032;6.998;2023-07-13T21:13:55;19.49;68.65
35085;SHT85;21267;51.032;6.998;2023-07-13T21:16:26;19.56;68.38
35085;SHT85;21267;51.032;6.998;2023-07-13T21:18:54;19.53;68.50